sensor_id;sensor_type;location;lat;lon;timestamp;P1;durP1;ratioP1;P2;durP2;ratioP2
26325;SDS011;14032;52.510;7.342;2023-05-17T00:01:33;27.90;;;5.57;;
26325;SDS011;14032;52.510;7.342;2023-05-17T00:03:59;21.92;;;5.90;;
26325;SDS011;14032;52.510;7.342;2023-05-17T00:06:24;25.50;;;6.05;;
26325;SDS011;14032;52.510;7.342;2023-05-17T00:08:50;20.63;;;5.88;;
26325;SDS011;14032;52.510;7.342;2023-05-17T00:11:15;20.48;;;5.50;;
26325;SDS011;14032;52.510;7.342;2023-05-17T00:13:41;28.98;;;6.72;;
26325;SDS011;14032;52.510;7.342;2023-05-17T00:16:07;26.27;;;6.43;;
26325;SDS011;14032;52.510;7.342;2023-05-17T00:18:32;19.55;;;5.35;;
26325;SDS011;14032;52.510;7.342;2023-05-17T00:20:58;23.95;;;6.35;;
26325;SDS011;14032;52.510;7.342;2023-05-17T00:23:23;27.48;;;6.30;;
26325;SDS011;14032;52.510;7.342;2023-05-17T00:25:49;33.70;;;6.55;;
26325;SDS011;14032;52.510;7.342;2023-05-17T00:28:15;24.75;;;5.80;;
26325;SDS011;14032;52.510;7.342;2023-05-17T00:30:40;23.17;;;6.43;;
26325;SDS011;14032;52.510;7.342;2023-05-17T00:33:06;22.10;;;6.10;;
26325;SDS011;14032;52.510;7.342;2023-05-17T00:35:32;20.90;;;6.93;;
26325;SDS011;14032;52.510;7.342;2023-05-17T00:37:57;25.77;;;6.90;;
26325;SDS011;14032;52.510;7.342;2023-05-17T00:40:23;27.45;;;6.97;;
26325;SDS011;14032;52.510;7.342;2023-05-17T00:42:49;28.85;;;7.15;;
26325;SDS011;14032;52.510;7.342;2023-05-17T00:45:14;26.40;;;6.60;;
26325;SDS011;14032;52.510;7.342;2023-05-17T00:47:40;31.02;;;6.85;;
26325;SDS011;14032;52.510;7.342;2023-05-17T00:50:06;25.30;;;6.72;;
26325;SDS011;14032;52.510;7.342;2023-05-17T00:52:33;20.98;;;6.18;;
26325;SDS011;14032;52.510;7.342;2023-05-17T00:54:59;25.15;;;6.43;;
26325;SDS011;14032;52.510;7.342;2023-05-17T00:57:25;24.52;;;6.75;;
26325;SDS011;14032;52.510;7.342;2023-05-17T00:59:53;25.98;;;6.25;;
26325;SDS011;14032;52.510;7.342;2023-05-17T01:02:20;25.20;;;6.43;;
26325;SDS011;14032;52.510;7.342;2023-05-17T01:04:46;30.20;;;7.50;;
26325;SDS011;14032;52.510;7.342;2023-05-17T01:07:12;26.25;;;6.43;;
26325;SDS011;14032;52.510;7.342;2023-05-17T01:09:38;28.83;;;6.93;;
26325;SDS011;14032;52.510;7.342;2023-05-17T01:14:57;27.95;;;7.60;;
26325;SDS011;14032;52.510;7.342;2023-05-17T01:17:39;39.67;;;7.63;;
26325;SDS011;14032;52.510;7.342;2023-05-17T01:20:20;29.05;;;7.28;;
26325;SDS011;14032;52.510;7.342;2023-05-17T01:26:13;28.30;;;6.57;;
26325;SDS011;14032;52.510;7.342;2023-05-17T01:28:38;22.00;;;7.05;;
26325;SDS011;14032;52.510;7.342;2023-05-17T01:31:06;21.77;;;6.70;;
26325;SDS011;14032;52.510;7.342;2023-05-17T01:33:33;23.15;;;6.70;;
26325;SDS011;14032;52.510;7.342;2023-05-17T01:36:00;25.42;;;6.30;;
26325;SDS011;14032;52.510;7.342;2023-05-17T01:38:26;25.35;;;6.68;;
26325;SDS011;14032;52.510;7.342;2023-05-17T01:41:00;29.40;;;7.25;;
26325;SDS011;14032;52.510;7.342;2023-05-17T01:44:03;25.95;;;5.78;;
26325;SDS011;14032;52.510;7.342;2023-05-17T01:46:57;21.95;;;5.90;;
26325;SDS011;14032;52.510;7.342;2023-05-17T01:49:29;25.15;;;6.43;;
26325;SDS011;14032;52.510;7.342;2023-05-17T01:52:07;23.75;;;6.47;;
26325;SDS011;14032;52.510;7.342;2023-05-17T01:54:43;27.90;;;6.07;;
26325;SDS011;14032;52.510;7.342;2023-05-17T01:57:10;24.08;;;6.25;;
26325;SDS011;14032;52.510;7.342;2023-05-17T01:59:37;25.35;;;6.45;;
26325;SDS011;14032;52.510;7.342;2023-05-17T02:02:03;27.27;;;6.70;;
26325;SDS011;14032;52.510;7.342;2023-05-17T02:04:35;21.38;;;6.35;;
26325;SDS011;14032;52.510;7.342;2023-05-17T02:07:01;25.50;;;6.28;;
26325;SDS011;14032;52.510;7.342;2023-05-17T02:09:27;38.28;;;7.15;;
26325;SDS011;14032;52.510;7.342;2023-05-17T02:11:53;27.67;;;5.95;;
26325;SDS011;14032;52.510;7.342;2023-05-17T02:14:19;31.25;;;6.80;;
26325;SDS011;14032;52.510;7.342;2023-05-17T02:16:44;29.52;;;6.65;;
26325;SDS011;14032;52.510;7.342;2023-05-17T02:19:10;29.67;;;7.28;;
26325;SDS011;14032;52.510;7.342;2023-05-17T02:21:37;25.30;;;6.43;;
26325;SDS011;14032;52.510;7.342;2023-05-17T02:24:02;25.42;;;6.90;;
26325;SDS011;14032;52.510;7.342;2023-05-17T02:26:28;27.00;;;6.78;;
26325;SDS011;14032;52.510;7.342;2023-05-17T02:28:55;29.38;;;6.93;;
26325;SDS011;14032;52.510;7.342;2023-05-17T02:31:22;33.70;;;7.18;;
26325;SDS011;14032;52.510;7.342;2023-05-17T02:33:51;28.00;;;6.10;;
26325;SDS011;14032;52.510;7.342;2023-05-17T02:36:20;22.63;;;5.70;;
26325;SDS011;14032;52.510;7.342;2023-05-17T02:38:45;28.67;;;6.18;;
26325;SDS011;14032;52.510;7.342;2023-05-17T02:41:11;35.40;;;6.80;;
26325;SDS011;14032;52.510;7.342;2023-05-17T02:43:36;23.58;;;5.55;;
26325;SDS011;14032;52.510;7.342;2023-05-17T02:46:02;28.45;;;6.63;;
26325;SDS011;14032;52.510;7.342;2023-05-17T02:48:28;31.92;;;6.85;;
26325;SDS011;14032;52.510;7.342;2023-05-17T02:50:53;28.98;;;6.30;;
26325;SDS011;14032;52.510;7.342;2023-05-17T02:53:19;29.55;;;6.40;;
26325;SDS011;14032;52.510;7.342;2023-05-17T02:55:44;22.55;;;6.07;;
26325;SDS011;14032;52.510;7.342;2023-05-17T02:58:10;28.23;;;6.63;;
26325;SDS011;14032;52.510;7.342;2023-05-17T03:00:36;22.15;;;5.68;;
26325;SDS011;14032;52.510;7.342;2023-05-17T03:03:01;28.75;;;5.95;;
26325;SDS011;14032;52.510;7.342;2023-05-17T03:05:27;32.15;;;6.63;;
26325;SDS011;14032;52.510;7.342;2023-05-17T03:07:52;20.58;;;5.53;;
26325;SDS011;14032;52.510;7.342;2023-05-17T03:10:18;27.83;;;4.72;;
26325;SDS011;14032;52.510;7.342;2023-05-17T03:12:44;28.05;;;5.65;;
26325;SDS011;14032;52.510;7.342;2023-05-17T03:15:09;29.17;;;6.45;;
26325;SDS011;14032;52.510;7.342;2023-05-17T03:17:35;34.65;;;6.03;;
26325;SDS011;14032;52.510;7.342;2023-05-17T03:20:01;36.30;;;5.85;;
26325;SDS011;14032;52.510;7.342;2023-05-17T03:22:27;34.80;;;5.70;;
26325;SDS011;14032;52.510;7.342;2023-05-17T03:24:52;37.15;;;6.30;;
26325;SDS011;14032;52.510;7.342;2023-05-17T03:27:18;33.97;;;5.20;;
26325;SDS011;14032;52.510;7.342;2023-05-17T03:29:43;40.30;;;5.85;;
26325;SDS011;14032;52.510;7.342;2023-05-17T03:32:09;24.55;;;4.95;;
26325;SDS011;14032;52.510;7.342;2023-05-17T03:34:35;29.30;;;5.20;;
26325;SDS011;14032;52.510;7.342;2023-05-17T03:37:00;31.85;;;5.50;;
26325;SDS011;14032;52.510;7.342;2023-05-17T03:39:26;26.23;;;5.07;;
26325;SDS011;14032;52.510;7.342;2023-05-17T03:41:51;31.10;;;5.15;;
26325;SDS011;14032;52.510;7.342;2023-05-17T03:44:17;27.10;;;5.10;;
26325;SDS011;14032;52.510;7.342;2023-05-17T03:46:42;20.00;;;4.45;;
26325;SDS011;14032;52.510;7.342;2023-05-17T03:49:08;27.13;;;6.25;;
26325;SDS011;14032;52.510;7.342;2023-05-17T03:51:34;31.83;;;5.55;;
26325;SDS011;14032;52.510;7.342;2023-05-17T03:54:00;27.00;;;5.38;;
26325;SDS011;14032;52.510;7.342;2023-05-17T03:56:26;34.55;;;5.70;;
26325;SDS011;14032;52.510;7.342;2023-05-17T03:58:51;35.08;;;5.97;;
26325;SDS011;14032;52.510;7.342;2023-05-17T04:01:17;34.58;;;5.93;;
26325;SDS011;14032;52.510;7.342;2023-05-17T04:03:44;28.40;;;5.15;;
26325;SDS011;14032;52.510;7.342;2023-05-17T04:06:11;23.40;;;4.72;;
26325;SDS011;14032;52.510;7.342;2023-05-17T04:08:37;35.95;;;5.93;;
26325;SDS011;14032;52.510;7.342;2023-05-17T04:11:03;37.58;;;6.03;;
26325;SDS011;14032;52.510;7.342;2023-05-17T04:13:37;39.65;;;6.25;;
26325;SDS011;14032;52.510;7.342;2023-05-17T04:16:06;24.60;;;5.18;;
26325;SDS011;14032;52.510;7.342;2023-05-17T04:18:33;29.60;;;4.63;;
26325;SDS011;14032;52.510;7.342;2023-05-17T04:21:00;27.63;;;4.80;;
26325;SDS011;14032;52.510;7.342;2023-05-17T04:23:26;27.92;;;5.15;;
26325;SDS011;14032;52.510;7.342;2023-05-17T04:25:51;22.08;;;4.55;;
26325;SDS011;14032;52.510;7.342;2023-05-17T04:28:17;31.67;;;5.80;;
26325;SDS011;14032;52.510;7.342;2023-05-17T04:30:44;37.05;;;5.28;;
26325;SDS011;14032;52.510;7.342;2023-05-17T04:33:11;27.25;;;4.28;;
26325;SDS011;14032;52.510;7.342;2023-05-17T04:35:37;27.40;;;4.47;;
26325;SDS011;14032;52.510;7.342;2023-05-17T04:38:05;32.10;;;5.00;;
26325;SDS011;14032;52.510;7.342;2023-05-17T04:40:31;31.98;;;4.20;;
26325;SDS011;14032;52.510;7.342;2023-05-17T04:42:57;29.83;;;5.22;;
26325;SDS011;14032;52.510;7.342;2023-05-17T04:45:22;31.15;;;5.25;;
26325;SDS011;14032;52.510;7.342;2023-05-17T04:47:48;25.67;;;4.60;;
26325;SDS011;14032;52.510;7.342;2023-05-17T04:50:15;30.77;;;4.93;;
26325;SDS011;14032;52.510;7.342;2023-05-17T04:52:41;34.80;;;5.45;;
26325;SDS011;14032;52.510;7.342;2023-05-17T04:55:07;30.73;;;4.80;;
26325;SDS011;14032;52.510;7.342;2023-05-17T04:57:33;28.27;;;5.75;;
26325;SDS011;14032;52.510;7.342;2023-05-17T04:59:59;24.60;;;4.03;;
26325;SDS011;14032;52.510;7.342;2023-05-17T05:02:25;28.02;;;5.60;;
26325;SDS011;14032;52.510;7.342;2023-05-17T05:04:51;30.83;;;5.15;;
26325;SDS011;14032;52.510;7.342;2023-05-17T05:07:17;23.83;;;4.32;;
26325;SDS011;14032;52.510;7.342;2023-05-17T05:09:42;30.63;;;4.03;;
26325;SDS011;14032;52.510;7.342;2023-05-17T05:12:08;20.08;;;4.32;;
26325;SDS011;14032;52.510;7.342;2023-05-17T05:14:33;29.92;;;5.07;;
26325;SDS011;14032;52.510;7.342;2023-05-17T05:16:59;23.55;;;4.43;;
26325;SDS011;14032;52.510;7.342;2023-05-17T05:19:25;28.58;;;5.07;;
26325;SDS011;14032;52.510;7.342;2023-05-17T05:21:50;27.90;;;4.20;;
26325;SDS011;14032;52.510;7.342;2023-05-17T05:24:16;22.75;;;4.82;;
26325;SDS011;14032;52.510;7.342;2023-05-17T05:26:41;23.95;;;3.90;;
26325;SDS011;14032;52.510;7.342;2023-05-17T05:29:08;30.67;;;5.10;;
26325;SDS011;14032;52.510;7.342;2023-05-17T05:31:34;24.58;;;4.28;;
26325;SDS011;14032;52.510;7.342;2023-05-17T05:33:59;21.40;;;3.72;;
26325;SDS011;14032;52.510;7.342;2023-05-17T05:36:25;34.78;;;4.15;;
26325;SDS011;14032;52.510;7.342;2023-05-17T05:38:50;27.65;;;4.43;;
26325;SDS011;14032;52.510;7.342;2023-05-17T05:41:18;21.15;;;4.13;;
26325;SDS011;14032;52.510;7.342;2023-05-17T05:43:44;26.02;;;4.50;;
26325;SDS011;14032;52.510;7.342;2023-05-17T05:46:09;27.10;;;4.50;;
26325;SDS011;14032;52.510;7.342;2023-05-17T05:48:35;21.45;;;3.55;;
26325;SDS011;14032;52.510;7.342;2023-05-17T05:51:03;25.30;;;4.22;;
26325;SDS011;14032;52.510;7.342;2023-05-17T05:53:29;22.40;;;4.25;;
26325;SDS011;14032;52.510;7.342;2023-05-17T05:55:55;30.83;;;4.68;;
26325;SDS011;14032;52.510;7.342;2023-05-17T05:58:20;19.58;;;4.63;;
26325;SDS011;14032;52.510;7.342;2023-05-17T06:00:46;26.55;;;3.72;;
26325;SDS011;14032;52.510;7.342;2023-05-17T06:03:15;20.75;;;3.95;;
26325;SDS011;14032;52.510;7.342;2023-05-17T06:05:40;22.10;;;3.50;;
26325;SDS011;14032;52.510;7.342;2023-05-17T06:08:09;23.60;;;3.97;;
26325;SDS011;14032;52.510;7.342;2023-05-17T06:10:34;24.55;;;3.17;;
26325;SDS011;14032;52.510;7.342;2023-05-17T06:13:00;25.52;;;3.42;;
26325;SDS011;14032;52.510;7.342;2023-05-17T06:15:26;17.63;;;4.03;;
26325;SDS011;14032;52.510;7.342;2023-05-17T06:17:52;20.45;;;3.30;;
26325;SDS011;14032;52.510;7.342;2023-05-17T06:20:18;21.17;;;2.70;;
26325;SDS011;14032;52.510;7.342;2023-05-17T06:22:43;21.23;;;3.35;;
26325;SDS011;14032;52.510;7.342;2023-05-17T06:25:09;17.33;;;2.90;;
26325;SDS011;14032;52.510;7.342;2023-05-17T06:27:37;18.67;;;3.25;;
26325;SDS011;14032;52.510;7.342;2023-05-17T06:30:03;21.15;;;3.78;;
26325;SDS011;14032;52.510;7.342;2023-05-17T06:32:30;16.70;;;2.85;;
26325;SDS011;14032;52.510;7.342;2023-05-17T06:34:55;9.43;;;1.80;;
26325;SDS011;14032;52.510;7.342;2023-05-17T06:37:21;16.52;;;2.55;;
26325;SDS011;14032;52.510;7.342;2023-05-17T06:39:49;13.20;;;2.20;;
26325;SDS011;14032;52.510;7.342;2023-05-17T06:42:15;19.95;;;2.60;;
26325;SDS011;14032;52.510;7.342;2023-05-17T06:44:41;9.45;;;1.60;;
26325;SDS011;14032;52.510;7.342;2023-05-17T06:47:07;12.48;;;1.90;;
26325;SDS011;14032;52.510;7.342;2023-05-17T06:49:33;9.88;;;1.98;;
26325;SDS011;14032;52.510;7.342;2023-05-17T06:51:58;11.55;;;1.83;;
26325;SDS011;14032;52.510;7.342;2023-05-17T06:54:27;13.65;;;2.35;;
26325;SDS011;14032;52.510;7.342;2023-05-17T06:56:54;11.95;;;1.83;;
26325;SDS011;14032;52.510;7.342;2023-05-17T06:59:23;18.25;;;2.55;;
26325;SDS011;14032;52.510;7.342;2023-05-17T07:01:49;10.95;;;1.98;;
26325;SDS011;14032;52.510;7.342;2023-05-17T07:04:14;15.93;;;2.10;;
26325;SDS011;14032;52.510;7.342;2023-05-17T07:06:40;14.75;;;2.30;;
26325;SDS011;14032;52.510;7.342;2023-05-17T07:09:05;15.15;;;1.83;;
26325;SDS011;14032;52.510;7.342;2023-05-17T07:11:32;13.75;;;2.47;;
26325;SDS011;14032;52.510;7.342;2023-05-17T07:13:57;17.73;;;2.65;;
26325;SDS011;14032;52.510;7.342;2023-05-17T07:16:23;11.23;;;1.80;;
26325;SDS011;14032;52.510;7.342;2023-05-17T07:18:48;16.50;;;3.10;;
26325;SDS011;14032;52.510;7.342;2023-05-17T07:21:14;15.95;;;2.42;;
26325;SDS011;14032;52.510;7.342;2023-05-17T07:23:39;12.00;;;1.75;;
26325;SDS011;14032;52.510;7.342;2023-05-17T07:26:05;17.30;;;2.50;;
26325;SDS011;14032;52.510;7.342;2023-05-17T07:28:31;23.60;;;2.63;;
26325;SDS011;14032;52.510;7.342;2023-05-17T07:30:56;17.30;;;2.50;;
26325;SDS011;14032;52.510;7.342;2023-05-17T07:33:22;11.98;;;2.35;;
26325;SDS011;14032;52.510;7.342;2023-05-17T07:35:47;17.33;;;2.30;;
26325;SDS011;14032;52.510;7.342;2023-05-17T07:38:13;20.77;;;2.20;;
26325;SDS011;14032;52.510;7.342;2023-05-17T07:40:41;18.98;;;2.85;;
26325;SDS011;14032;52.510;7.342;2023-05-17T07:43:08;13.48;;;1.88;;
26325;SDS011;14032;52.510;7.342;2023-05-17T07:45:34;15.52;;;2.90;;
26325;SDS011;14032;52.510;7.342;2023-05-17T07:48:00;18.33;;;2.20;;
26325;SDS011;14032;52.510;7.342;2023-05-17T07:50:25;10.32;;;1.70;;
26325;SDS011;14032;52.510;7.342;2023-05-17T07:52:51;12.32;;;1.95;;
26325;SDS011;14032;52.510;7.342;2023-05-17T07:55:17;13.52;;;2.25;;
26325;SDS011;14032;52.510;7.342;2023-05-17T07:57:44;16.15;;;2.53;;
26325;SDS011;14032;52.510;7.342;2023-05-17T08:00:11;13.10;;;2.58;;
26325;SDS011;14032;52.510;7.342;2023-05-17T08:02:38;9.75;;;1.50;;
26325;SDS011;14032;52.510;7.342;2023-05-17T08:05:04;14.60;;;2.33;;
26325;SDS011;14032;52.510;7.342;2023-05-17T08:07:30;12.30;;;1.80;;
26325;SDS011;14032;52.510;7.342;2023-05-17T08:09:55;15.20;;;2.28;;
26325;SDS011;14032;52.510;7.342;2023-05-17T08:12:21;11.45;;;1.83;;
26325;SDS011;14032;52.510;7.342;2023-05-17T08:14:46;11.75;;;2.13;;
26325;SDS011;14032;52.510;7.342;2023-05-17T08:17:12;9.60;;;1.77;;
26325;SDS011;14032;52.510;7.342;2023-05-17T08:19:37;12.20;;;2.33;;
26325;SDS011;14032;52.510;7.342;2023-05-17T08:22:04;11.32;;;2.60;;
26325;SDS011;14032;52.510;7.342;2023-05-17T08:24:29;12.25;;;1.95;;
26325;SDS011;14032;52.510;7.342;2023-05-17T08:26:55;11.73;;;1.90;;
26325;SDS011;14032;52.510;7.342;2023-05-17T08:29:21;13.85;;;2.50;;
26325;SDS011;14032;52.510;7.342;2023-05-17T08:31:47;15.55;;;2.42;;
26325;SDS011;14032;52.510;7.342;2023-05-17T08:34:12;12.20;;;2.47;;
26325;SDS011;14032;52.510;7.342;2023-05-17T08:36:38;9.38;;;2.05;;
26325;SDS011;14032;52.510;7.342;2023-05-17T08:39:03;12.15;;;1.70;;
26325;SDS011;14032;52.510;7.342;2023-05-17T08:41:29;15.05;;;2.83;;
26325;SDS011;14032;52.510;7.342;2023-05-17T08:43:55;11.60;;;2.40;;
26325;SDS011;14032;52.510;7.342;2023-05-17T08:46:22;10.25;;;2.08;;
26325;SDS011;14032;52.510;7.342;2023-05-17T08:48:51;11.95;;;2.15;;
26325;SDS011;14032;52.510;7.342;2023-05-17T08:51:18;12.63;;;2.53;;
26325;SDS011;14032;52.510;7.342;2023-05-17T08:53:44;11.27;;;1.90;;
26325;SDS011;14032;52.510;7.342;2023-05-17T08:56:10;15.75;;;2.78;;
26325;SDS011;14032;52.510;7.342;2023-05-17T08:58:38;11.38;;;2.00;;
26325;SDS011;14032;52.510;7.342;2023-05-17T09:01:07;11.52;;;2.63;;
26325;SDS011;14032;52.510;7.342;2023-05-17T09:03:34;17.95;;;2.97;;
26325;SDS011;14032;52.510;7.342;2023-05-17T09:06:05;18.23;;;2.80;;
26325;SDS011;14032;52.510;7.342;2023-05-17T09:08:31;11.57;;;2.72;;
26325;SDS011;14032;52.510;7.342;2023-05-17T09:10:57;12.80;;;2.20;;
26325;SDS011;14032;52.510;7.342;2023-05-17T09:13:23;12.80;;;2.63;;
26325;SDS011;14032;52.510;7.342;2023-05-17T09:15:49;16.02;;;2.47;;
26325;SDS011;14032;52.510;7.342;2023-05-17T09:18:15;13.35;;;2.40;;
26325;SDS011;14032;52.510;7.342;2023-05-17T09:20:41;16.52;;;3.13;;
26325;SDS011;14032;52.510;7.342;2023-05-17T09:23:13;13.48;;;2.67;;
26325;SDS011;14032;52.510;7.342;2023-05-17T09:26:02;12.95;;;2.35;;
26325;SDS011;14032;52.510;7.342;2023-05-17T09:28:35;14.68;;;2.55;;
26325;SDS011;14032;52.510;7.342;2023-05-17T09:31:08;20.87;;;3.73;;
26325;SDS011;14032;52.510;7.342;2023-05-17T09:33:41;14.52;;;3.00;;
26325;SDS011;14032;52.510;7.342;2023-05-17T09:36:14;17.15;;;2.90;;
26325;SDS011;14032;52.510;7.342;2023-05-17T09:38:51;11.68;;;2.33;;
26325;SDS011;14032;52.510;7.342;2023-05-17T09:41:26;12.02;;;3.17;;
26325;SDS011;14032;52.510;7.342;2023-05-17T09:44:00;17.08;;;3.42;;
26325;SDS011;14032;52.510;7.342;2023-05-17T09:46:27;18.95;;;3.17;;
26325;SDS011;14032;52.510;7.342;2023-05-17T09:48:59;21.60;;;3.28;;
26325;SDS011;14032;52.510;7.342;2023-05-17T09:51:43;16.30;;;3.47;;
26325;SDS011;14032;52.510;7.342;2023-05-17T09:54:10;11.63;;;2.78;;
26325;SDS011;14032;52.510;7.342;2023-05-17T09:56:36;23.45;;;3.47;;
26325;SDS011;14032;52.510;7.342;2023-05-17T09:59:03;15.15;;;2.42;;
26325;SDS011;14032;52.510;7.342;2023-05-17T10:01:34;16.25;;;3.13;;
26325;SDS011;14032;52.510;7.342;2023-05-17T10:04:04;20.33;;;2.92;;
26325;SDS011;14032;52.510;7.342;2023-05-17T10:06:32;17.23;;;3.20;;
26325;SDS011;14032;52.510;7.342;2023-05-17T10:09:00;15.48;;;2.90;;
26325;SDS011;14032;52.510;7.342;2023-05-17T10:11:29;20.33;;;2.92;;
26325;SDS011;14032;52.510;7.342;2023-05-17T10:14:03;19.80;;;3.10;;
26325;SDS011;14032;52.510;7.342;2023-05-17T10:16:36;14.27;;;2.75;;
26325;SDS011;14032;52.510;7.342;2023-05-17T10:19:04;17.08;;;2.72;;
26325;SDS011;14032;52.510;7.342;2023-05-17T10:21:30;15.13;;;2.88;;
26325;SDS011;14032;52.510;7.342;2023-05-17T10:24:00;12.65;;;2.50;;
26325;SDS011;14032;52.510;7.342;2023-05-17T10:26:27;19.38;;;3.00;;
26325;SDS011;14032;52.510;7.342;2023-05-17T10:28:57;15.82;;;2.40;;
26325;SDS011;14032;52.510;7.342;2023-05-17T10:31:30;15.13;;;2.50;;
26325;SDS011;14032;52.510;7.342;2023-05-17T10:34:03;13.40;;;2.90;;
26325;SDS011;14032;52.510;7.342;2023-05-17T10:36:30;9.73;;;2.22;;
26325;SDS011;14032;52.510;7.342;2023-05-17T10:38:57;12.88;;;2.95;;
26325;SDS011;14032;52.510;7.342;2023-05-17T10:41:25;11.30;;;2.20;;
26325;SDS011;14032;52.510;7.342;2023-05-17T10:43:54;11.10;;;2.10;;
26325;SDS011;14032;52.510;7.342;2023-05-17T10:46:21;11.73;;;2.88;;
26325;SDS011;14032;52.510;7.342;2023-05-17T10:48:51;16.05;;;2.95;;
26325;SDS011;14032;52.510;7.342;2023-05-17T10:51:21;13.88;;;2.00;;
26325;SDS011;14032;52.510;7.342;2023-05-17T10:56:39;13.60;;;2.67;;
26325;SDS011;14032;52.510;7.342;2023-05-17T10:59:19;10.63;;;2.35;;
26325;SDS011;14032;52.510;7.342;2023-05-17T11:01:48;14.10;;;2.55;;
26325;SDS011;14032;52.510;7.342;2023-05-17T11:04:20;12.88;;;2.17;;
26325;SDS011;14032;52.510;7.342;2023-05-17T11:06:50;16.15;;;2.17;;
26325;SDS011;14032;52.510;7.342;2023-05-17T11:09:16;9.77;;;2.47;;
26325;SDS011;14032;52.510;7.342;2023-05-17T11:12:02;11.40;;;2.42;;
26325;SDS011;14032;52.510;7.342;2023-05-17T11:14:41;13.18;;;2.95;;
26325;SDS011;14032;52.510;7.342;2023-05-17T11:19:54;9.57;;;3.08;;
26325;SDS011;14032;52.510;7.342;2023-05-17T11:22:26;17.75;;;3.20;;
26325;SDS011;14032;52.510;7.342;2023-05-17T11:24:57;8.45;;;2.58;;
26325;SDS011;14032;52.510;7.342;2023-05-17T11:27:25;12.75;;;2.92;;
26325;SDS011;14032;52.510;7.342;2023-05-17T11:30:02;11.20;;;2.00;;
26325;SDS011;14032;52.510;7.342;2023-05-17T11:32:33;11.20;;;2.50;;
26325;SDS011;14032;52.510;7.342;2023-05-17T11:34:58;12.52;;;2.28;;
26325;SDS011;14032;52.510;7.342;2023-05-17T11:37:25;13.25;;;2.78;;
26325;SDS011;14032;52.510;7.342;2023-05-17T11:40:02;11.32;;;2.28;;
26325;SDS011;14032;52.510;7.342;2023-05-17T11:42:32;10.88;;;2.20;;
26325;SDS011;14032;52.510;7.342;2023-05-17T11:45:00;17.23;;;3.40;;
26325;SDS011;14032;52.510;7.342;2023-05-17T11:47:26;14.77;;;2.22;;
26325;SDS011;14032;52.510;7.342;2023-05-17T11:49:53;8.80;;;2.00;;
26325;SDS011;14032;52.510;7.342;2023-05-17T11:52:20;12.90;;;2.05;;
26325;SDS011;14032;52.510;7.342;2023-05-17T11:54:47;15.60;;;2.85;;
26325;SDS011;14032;52.510;7.342;2023-05-17T11:57:14;13.15;;;2.45;;
26325;SDS011;14032;52.510;7.342;2023-05-17T11:59:42;12.75;;;2.60;;
26325;SDS011;14032;52.510;7.342;2023-05-17T12:02:08;15.70;;;2.50;;
26325;SDS011;14032;52.510;7.342;2023-05-17T12:04:37;19.58;;;3.08;;
26325;SDS011;14032;52.510;7.342;2023-05-17T12:07:03;7.65;;;2.00;;
26325;SDS011;14032;52.510;7.342;2023-05-17T12:09:29;11.77;;;2.28;;
26325;SDS011;14032;52.510;7.342;2023-05-17T12:11:55;10.20;;;2.20;;
26325;SDS011;14032;52.510;7.342;2023-05-17T12:14:22;11.18;;;1.85;;
26325;SDS011;14032;52.510;7.342;2023-05-17T12:16:52;12.60;;;2.58;;
26325;SDS011;14032;52.510;7.342;2023-05-17T12:19:20;9.07;;;1.67;;
26325;SDS011;14032;52.510;7.342;2023-05-17T12:21:48;9.52;;;2.05;;
26325;SDS011;14032;52.510;7.342;2023-05-17T12:24:15;12.18;;;2.65;;
26325;SDS011;14032;52.510;7.342;2023-05-17T12:26:41;13.75;;;2.50;;
26325;SDS011;14032;52.510;7.342;2023-05-17T12:29:11;10.35;;;2.20;;
26325;SDS011;14032;52.510;7.342;2023-05-17T12:31:46;8.70;;;1.98;;
26325;SDS011;14032;52.510;7.342;2023-05-17T12:34:14;8.82;;;2.05;;
26325;SDS011;14032;52.510;7.342;2023-05-17T12:36:41;11.75;;;2.17;;
26325;SDS011;14032;52.510;7.342;2023-05-17T12:39:08;13.25;;;2.08;;
26325;SDS011;14032;52.510;7.342;2023-05-17T12:41:36;14.30;;;2.03;;
26325;SDS011;14032;52.510;7.342;2023-05-17T12:44:02;11.38;;;2.03;;
26325;SDS011;14032;52.510;7.342;2023-05-17T12:46:29;10.35;;;2.28;;
26325;SDS011;14032;52.510;7.342;2023-05-17T12:48:54;8.88;;;1.73;;
26325;SDS011;14032;52.510;7.342;2023-05-17T12:51:28;17.90;;;2.47;;
26325;SDS011;14032;52.510;7.342;2023-05-17T12:54:03;8.32;;;1.75;;
26325;SDS011;14032;52.510;7.342;2023-05-17T12:56:29;9.05;;;2.35;;
26325;SDS011;14032;52.510;7.342;2023-05-17T12:59:04;8.95;;;1.98;;
26325;SDS011;14032;52.510;7.342;2023-05-17T13:01:44;9.65;;;2.00;;
26325;SDS011;14032;52.510;7.342;2023-05-17T13:04:28;13.02;;;2.08;;
26325;SDS011;14032;52.510;7.342;2023-05-17T13:06:59;12.30;;;2.10;;
26325;SDS011;14032;52.510;7.342;2023-05-17T13:09:26;12.35;;;2.40;;
26325;SDS011;14032;52.510;7.342;2023-05-17T13:11:58;7.45;;;1.65;;
26325;SDS011;14032;52.510;7.342;2023-05-17T13:17:02;8.20;;;1.73;;
26325;SDS011;14032;52.510;7.342;2023-05-17T13:19:28;7.75;;;2.03;;
26325;SDS011;14032;52.510;7.342;2023-05-17T13:21:54;10.10;;;1.60;;
26325;SDS011;14032;52.510;7.342;2023-05-17T13:24:20;9.05;;;1.90;;
26325;SDS011;14032;52.510;7.342;2023-05-17T13:26:45;7.47;;;1.88;;
26325;SDS011;14032;52.510;7.342;2023-05-17T13:29:11;10.43;;;2.20;;
26325;SDS011;14032;52.510;7.342;2023-05-17T13:31:36;9.07;;;2.03;;
26325;SDS011;14032;52.510;7.342;2023-05-17T13:34:02;8.20;;;1.92;;
26325;SDS011;14032;52.510;7.342;2023-05-17T13:36:29;11.95;;;2.08;;
26325;SDS011;14032;52.510;7.342;2023-05-17T13:38:55;10.95;;;2.35;;
26325;SDS011;14032;52.510;7.342;2023-05-17T13:41:20;13.50;;;2.75;;
26325;SDS011;14032;52.510;7.342;2023-05-17T13:43:46;18.95;;;2.42;;
26325;SDS011;14032;52.510;7.342;2023-05-17T13:46:12;8.48;;;1.73;;
26325;SDS011;14032;52.510;7.342;2023-05-17T13:48:37;12.77;;;2.30;;
26325;SDS011;14032;52.510;7.342;2023-05-17T13:51:03;10.10;;;2.00;;
26325;SDS011;14032;52.510;7.342;2023-05-17T13:53:28;11.30;;;2.30;;
26325;SDS011;14032;52.510;7.342;2023-05-17T13:55:54;10.20;;;2.28;;
26325;SDS011;14032;52.510;7.342;2023-05-17T13:58:20;13.63;;;2.90;;
26325;SDS011;14032;52.510;7.342;2023-05-17T14:00:45;8.63;;;1.80;;
26325;SDS011;14032;52.510;7.342;2023-05-17T14:03:11;11.18;;;2.08;;
26325;SDS011;14032;52.510;7.342;2023-05-17T14:05:37;9.55;;;1.98;;
26325;SDS011;14032;52.510;7.342;2023-05-17T14:08:03;7.53;;;2.17;;
26325;SDS011;14032;52.510;7.342;2023-05-17T14:10:29;8.80;;;1.70;;
26325;SDS011;14032;52.510;7.342;2023-05-17T14:12:56;13.48;;;2.15;;
26325;SDS011;14032;52.510;7.342;2023-05-17T14:15:21;7.10;;;2.13;;
26325;SDS011;14032;52.510;7.342;2023-05-17T14:17:48;10.45;;;1.90;;
26325;SDS011;14032;52.510;7.342;2023-05-17T14:20:14;10.45;;;2.00;;
26325;SDS011;14032;52.510;7.342;2023-05-17T14:22:40;11.77;;;2.17;;
26325;SDS011;14032;52.510;7.342;2023-05-17T14:25:06;10.43;;;2.08;;
26325;SDS011;14032;52.510;7.342;2023-05-17T14:27:32;6.22;;;1.95;;
26325;SDS011;14032;52.510;7.342;2023-05-17T14:29:58;10.98;;;1.88;;
26325;SDS011;14032;52.510;7.342;2023-05-17T14:32:25;7.93;;;1.80;;
26325;SDS011;14032;52.510;7.342;2023-05-17T14:34:51;7.70;;;1.70;;
26325;SDS011;14032;52.510;7.342;2023-05-17T14:37:17;8.05;;;1.70;;
26325;SDS011;14032;52.510;7.342;2023-05-17T14:39:42;10.27;;;2.13;;
26325;SDS011;14032;52.510;7.342;2023-05-17T14:42:08;12.02;;;2.75;;
26325;SDS011;14032;52.510;7.342;2023-05-17T14:44:33;8.82;;;2.00;;
26325;SDS011;14032;52.510;7.342;2023-05-17T14:47:02;9.57;;;1.90;;
26325;SDS011;14032;52.510;7.342;2023-05-17T14:49:29;7.93;;;1.80;;
26325;SDS011;14032;52.510;7.342;2023-05-17T14:51:54;9.35;;;1.83;;